sensor_id;sensor_type;location;lat;lon;timestamp;pressure;altitude;pressure_sealevel;temperature;humidity
66887;BME280;67239;51.680;5.976;2023-04-15T00:01:10;100676.00;;;7.62;63.94
66887;BME280;67239;51.680;5.976;2023-04-15T00:03:37;100680.41;;;7.60;64.14
66887;BME280;67239;51.680;5.976;2023-04-15T00:06:05;100677.00;;;7.56;64.32
66887;BME280;67239;51.680;5.976;2023-04-15T00:08:32;100675.31;;;7.54;64.48
66887;BME280;67239;51.680;5.976;2023-04-15T00:10:59;100669.28;;;7.50;64.36
66887;BME280;67239;51.680;5.976;2023-04-15T00:13:29;100664.03;;;7.49;64.80
66887;BME280;67239;51.680;5.976;2023-04-15T00:15:56;100667.56;;;7.48;64.89
66887;BME280;67239;51.680;5.976;2023-04-15T00:18:23;100672.88;;;7.44;65.17
66887;BME280;67239;51.680;5.976;2023-04-15T00:20:51;100669.41;;;7.42;65.31
66887;BME280;67239;51.680;5.976;2023-04-15T00:23:18;100670.34;;;7.40;65.24
66887;BME280;67239;51.680;5.976;2023-04-15T00:25:45;100665.09;;;7.40;65.69
66887;BME280;67239;51.680;5.976;2023-04-15T00:28:12;100670.34;;;7.38;65.64
66887;BME280;67239;51.680;5.976;2023-04-15T00:30:39;100671.28;;;7.37;65.64
66887;BME280;67239;51.680;5.976;2023-04-15T00:33:08;100669.56;;;7.35;65.66
66887;BME280;67239;51.680;5.976;2023-04-15T00:35:35;100672.22;;;7.33;65.78
66887;BME280;67239;51.680;5.976;2023-04-15T00:38:04;100667.91;;;7.30;66.02
66887;BME280;67239;51.680;5.976;2023-04-15T00:40:32;100661.81;;;7.28;66.24
66887;BME280;67239;51.680;5.976;2023-04-15T00:42:59;100671.47;;;7.26;66.19
66887;BME280;67239;51.680;5.976;2023-04-15T00:45:26;100660.22;;;7.21;66.47
66887;BME280;67239;51.680;5.976;2023-04-15T00:47:57;100671.59;;;7.19;66.45
66887;BME280;67239;51.680;5.976;2023-04-15T00:50:24;100666.44;;;7.15;66.27
66887;BME280;67239;51.680;5.976;2023-04-15T00:52:51;100668.22;;;7.13;66.79
66887;BME280;67239;51.680;5.976;2023-04-15T00:55:18;100670.00;;;7.11;66.82
66887;BME280;67239;51.680;5.976;2023-04-15T00:57:45;100668.31;;;7.07;67.01
66887;BME280;67239;51.680;5.976;2023-04-15T01:00:15;100667.56;;;7.02;67.06
66887;BME280;67239;51.680;5.976;2023-04-15T01:02:51;100671.94;;;7.00;67.38
66887;BME280;67239;51.680;5.976;2023-04-15T01:05:19;100671.19;;;6.95;67.37
66887;BME280;67239;51.680;5.976;2023-04-15T01:07:47;100666.84;;;6.94;67.39
66887;BME280;67239;51.680;5.976;2023-04-15T01:10:14;100667.78;;;6.90;67.32
66887;BME280;67239;51.680;5.976;2023-04-15T01:12:42;100666.94;;;6.88;67.91
66887;BME280;67239;51.680;5.976;2023-04-15T01:15:10;100674.88;;;6.84;68.06
66887;BME280;67239;51.680;5.976;2023-04-15T01:17:38;100674.91;;;6.81;67.98
66887;BME280;67239;51.680;5.976;2023-04-15T01:20:07;100679.28;;;6.81;68.39
66887;BME280;67239;51.680;5.976;2023-04-15T01:22:38;100675.84;;;6.79;68.73
66887;BME280;67239;51.680;5.976;2023-04-15T01:25:15;100676.72;;;6.78;68.85
66887;BME280;67239;51.680;5.976;2023-04-15T01:27:45;100676.75;;;6.76;69.07
66887;BME280;67239;51.680;5.976;2023-04-15T01:30:13;100677.59;;;6.77;69.24
66887;BME280;67239;51.680;5.976;2023-04-15T01:32:41;100677.66;;;6.74;69.30
66887;BME280;67239;51.680;5.976;2023-04-15T01:35:08;100682.94;;;6.72;69.50
66887;BME280;67239;51.680;5.976;2023-04-15T01:37:35;100679.41;;;6.72;69.72
66887;BME280;67239;51.680;5.976;2023-04-15T01:40:03;100682.06;;;6.70;70.31
66887;BME280;67239;51.680;5.976;2023-04-15T01:42:31;100680.38;;;6.67;70.22
66887;BME280;67239;51.680;5.976;2023-04-15T01:44:58;100682.13;;;6.67;70.50
66887;BME280;67239;51.680;5.976;2023-04-15T01:47:25;100679.56;;;6.64;70.46
66887;BME280;67239;51.680;5.976;2023-04-15T01:49:52;100691.78;;;6.63;70.88
66887;BME280;67239;51.680;5.976;2023-04-15T01:52:21;100683.09;;;6.63;71.11
66887;BME280;67239;51.680;5.976;2023-04-15T01:54:47;100683.94;;;6.63;71.34
66887;BME280;67239;51.680;5.976;2023-04-15T01:57:15;100676.09;;;6.62;71.29
66887;BME280;67239;51.680;5.976;2023-04-15T01:59:42;100676.09;;;6.62;71.52
66887;BME280;67239;51.680;5.976;2023-04-15T02:02:09;100681.38;;;6.59;71.49
66887;BME280;67239;51.680;5.976;2023-04-15T02:04:36;100676.22;;;6.54;71.60
66887;BME280;67239;51.680;5.976;2023-04-15T02:07:03;100676.28;;;6.51;71.86
66887;BME280;67239;51.680;5.976;2023-04-15T02:09:30;100672.84;;;6.47;72.28
66887;BME280;67239;51.680;5.976;2023-04-15T02:11:57;100683.41;;;6.41;72.11
66887;BME280;67239;51.680;5.976;2023-04-15T02:14:25;100685.19;;;6.39;72.21
66887;BME280;67239;51.680;5.976;2023-04-15T02:16:53;100688.72;;;6.36;72.53
66887;BME280;67239;51.680;5.976;2023-04-15T02:19:20;100686.19;;;6.32;72.52
66887;BME280;67239;51.680;5.976;2023-04-15T02:21:47;100676.63;;;6.28;72.77
66887;BME280;67239;51.680;5.976;2023-04-15T02:24:16;100685.44;;;6.24;72.85
66887;BME280;67239;51.680;5.976;2023-04-15T02:26:43;100680.19;;;6.24;73.40
66887;BME280;67239;51.680;5.976;2023-04-15T02:29:11;100682.81;;;6.22;73.48
66887;BME280;67239;51.680;5.976;2023-04-15T02:31:39;100681.09;;;6.21;73.70
66887;BME280;67239;51.680;5.976;2023-04-15T02:34:08;100685.50;;;6.19;73.97
66887;BME280;67239;51.680;5.976;2023-04-15T02:36:35;100689.00;;;6.18;74.08
66887;BME280;67239;51.680;5.976;2023-04-15T02:39:04;100695.09;;;6.20;74.36
66887;BME280;67239;51.680;5.976;2023-04-15T02:41:31;100693.38;;;6.17;74.31
66887;BME280;67239;51.680;5.976;2023-04-15T02:43:58;100698.59;;;6.17;74.61
66887;BME280;67239;51.680;5.976;2023-04-15T02:46:27;100702.06;;;6.19;74.81
66887;BME280;67239;51.680;5.976;2023-04-15T02:48:54;100698.59;;;6.17;74.65
66887;BME280;67239;51.680;5.976;2023-04-15T02:51:22;100708.22;;;6.17;74.95
66887;BME280;67239;51.680;5.976;2023-04-15T02:53:49;100696.88;;;6.18;75.10
66887;BME280;67239;51.680;5.976;2023-04-15T02:56:17;100710.81;;;6.18;75.36
66887;BME280;67239;51.680;5.976;2023-04-15T02:58:45;100712.59;;;6.15;75.10
66887;BME280;67239;51.680;5.976;2023-04-15T03:01:13;100711.78;;;6.11;75.50
66887;BME280;67239;51.680;5.976;2023-04-15T03:03:41;100713.53;;;6.11;75.66
66887;BME280;67239;51.680;5.976;2023-04-15T03:06:08;100707.44;;;6.10;75.90
66887;BME280;67239;51.680;5.976;2023-04-15T03:08:35;100715.28;;;6.10;75.73
66887;BME280;67239;51.680;5.976;2023-04-15T03:11:03;100720.53;;;6.10;75.60
66887;BME280;67239;51.680;5.976;2023-04-15T03:13:32;100720.50;;;6.12;76.26
66887;BME280;67239;51.680;5.976;2023-04-15T03:16:09;100717.88;;;6.12;76.33
66887;BME280;67239;51.680;5.976;2023-04-15T03:18:37;100717.03;;;6.11;76.44
66887;BME280;67239;51.680;5.976;2023-04-15T03:21:04;100720.56;;;6.09;76.36
66887;BME280;67239;51.680;5.976;2023-04-15T03:23:34;100717.09;;;6.06;76.38
66887;BME280;67239;51.680;5.976;2023-04-15T03:26:02;100731.94;;;6.04;76.52
66887;BME280;67239;51.680;5.976;2023-04-15T03:28:32;100731.97;;;6.03;76.64
66887;BME280;67239;51.680;5.976;2023-04-15T03:31:00;100730.22;;;6.02;76.93
66887;BME280;67239;51.680;5.976;2023-04-15T03:33:27;100742.41;;;6.04;76.98
66887;BME280;67239;51.680;5.976;2023-04-15T03:35:54;100745.03;;;6.04;77.31
66887;BME280;67239;51.680;5.976;2023-04-15T03:38:21;100737.16;;;6.04;77.30
66887;BME280;67239;51.680;5.976;2023-04-15T03:40:48;100744.16;;;6.04;77.56
66887;BME280;67239;51.680;5.976;2023-04-15T03:43:15;100738.94;;;6.02;77.39
66887;BME280;67239;51.680;5.976;2023-04-15T03:45:42;100741.63;;;5.99;77.44
66887;BME280;67239;51.680;5.976;2023-04-15T03:48:09;100735.50;;;5.97;77.85
66887;BME280;67239;51.680;5.976;2023-04-15T03:50:44;100745.97;;;5.97;77.89
66887;BME280;67239;51.680;5.976;2023-04-15T03:53:11;100752.06;;;5.96;77.96
66887;BME280;67239;51.680;5.976;2023-04-15T03:55:39;100754.78;;;5.90;77.87
66887;BME280;67239;51.680;5.976;2023-04-15T03:58:06;100756.56;;;5.85;78.13
66887;BME280;67239;51.680;5.976;2023-04-15T04:00:33;100765.34;;;5.81;78.09
66887;BME280;67239;51.680;5.976;2023-04-15T04:03:00;100764.53;;;5.75;78.51
66887;BME280;67239;51.680;5.976;2023-04-15T04:05:27;100763.69;;;5.73;78.66
66887;BME280;67239;51.680;5.976;2023-04-15T04:07:54;100765.47;;;5.70;78.92
66887;BME280;67239;51.680;5.976;2023-04-15T04:10:21;100769.00;;;5.66;79.02
66887;BME280;67239;51.680;5.976;2023-04-15T04:12:48;100771.66;;;5.61;79.10
66887;BME280;67239;51.680;5.976;2023-04-15T04:15:15;100776.09;;;5.56;79.16
66887;BME280;67239;51.680;5.976;2023-04-15T04:17:42;100779.59;;;5.52;79.35
66887;BME280;67239;51.680;5.976;2023-04-15T04:20:10;100775.28;;;5.49;79.63
66887;BME280;67239;51.680;5.976;2023-04-15T04:22:38;100785.75;;;5.46;79.94
66887;BME280;67239;51.680;5.976;2023-04-15T04:25:07;100785.81;;;5.43;80.10
66887;BME280;67239;51.680;5.976;2023-04-15T04:27:36;100785.84;;;5.38;80.15
66887;BME280;67239;51.680;5.976;2023-04-15T04:30:04;100788.50;;;5.35;80.36
66887;BME280;67239;51.680;5.976;2023-04-15T04:32:32;100798.97;;;5.32;80.74
66887;BME280;67239;51.680;5.976;2023-04-15T04:34:59;100800.75;;;5.28;80.65
66887;BME280;67239;51.680;5.976;2023-04-15T04:37:26;100806.00;;;5.24;80.99
66887;BME280;67239;51.680;5.976;2023-04-15T04:39:53;100806.91;;;5.21;81.21
66887;BME280;67239;51.680;5.976;2023-04-15T04:42:21;100800.81;;;5.21;81.77
66887;BME280;67239;51.680;5.976;2023-04-15T04:44:48;100808.66;;;5.21;81.82
66887;BME280;67239;51.680;5.976;2023-04-15T04:47:15;100820.88;;;5.20;81.99
66887;BME280;67239;51.680;5.976;2023-04-15T04:49:42;100817.38;;;5.18;81.85
66887;BME280;67239;51.680;5.976;2023-04-15T04:52:09;100820.03;;;5.17;81.95
66887;BME280;67239;51.680;5.976;2023-04-15T04:54:36;100823.50;;;5.19;82.18
66887;BME280;67239;51.680;5.976;2023-04-15T04:57:03;100822.66;;;5.17;82.04
66887;BME280;67239;51.680;5.976;2023-04-15T04:59:30;100828.72;;;5.19;82.28
66887;BME280;67239;51.680;5.976;2023-04-15T05:01:57;100827.84;;;5.18;82.22
66887;BME280;67239;51.680;5.976;2023-04-15T05:04:24;100841.75;;;5.25;82.41
66887;BME280;67239;51.680;5.976;2023-04-15T05:06:52;100841.72;;;5.26;82.31
66887;BME280;67239;51.680;5.976;2023-04-15T05:09:19;100839.06;;;5.33;81.96
66887;BME280;67239;51.680;5.976;2023-04-15T05:11:46;100845.94;;;5.43;81.74
66887;BME280;67239;51.680;5.976;2023-04-15T05:14:13;100851.06;;;5.54;81.53
66887;BME280;67239;51.680;5.976;2023-04-15T05:16:40;100856.13;;;5.74;80.99
66887;BME280;67239;51.680;5.976;2023-04-15T05:19:07;100855.72;;;6.13;80.02
66887;BME280;67239;51.680;5.976;2023-04-15T05:21:34;100858.47;;;6.72;78.10
66887;BME280;67239;51.680;5.976;2023-04-15T05:24:04;100855.00;;;7.78;74.83
66887;BME280;67239;51.680;5.976;2023-04-15T05:26:32;100851.81;;;8.53;71.67
66887;BME280;67239;51.680;5.976;2023-04-15T05:29:00;100862.69;;;8.77;70.05
66887;BME280;67239;51.680;5.976;2023-04-15T05:31:27;100863.91;;;8.62;70.19
66887;BME280;67239;51.680;5.976;2023-04-15T05:33:54;100864.00;;;8.12;71.03
66887;BME280;67239;51.680;5.976;2023-04-15T05:36:21;100865.81;;;7.61;72.69
66887;BME280;67239;51.680;5.976;2023-04-15T05:38:49;100872.47;;;7.29;74.24
66887;BME280;67239;51.680;5.976;2023-04-15T05:41:16;100878.00;;;7.10;75.10
66887;BME280;67239;51.680;5.976;2023-04-15T05:43:45;100879.84;;;7.04;75.68
66887;BME280;67239;51.680;5.976;2023-04-15T05:46:12;100882.50;;;7.02;75.67
66887;BME280;67239;51.680;5.976;2023-04-15T05:48:39;100886.78;;;7.08;76.47
66887;BME280;67239;51.680;5.976;2023-04-15T05:51:07;100895.44;;;7.14;76.40
66887;BME280;67239;51.680;5.976;2023-04-15T05:53:35;100885.66;;;7.24;76.26
66887;BME280;67239;51.680;5.976;2023-04-15T05:56:02;100896.00;;;7.34;76.18
66887;BME280;67239;51.680;5.976;2023-04-15T05:58:32;100901.09;;;7.44;76.03
66887;BME280;67239;51.680;5.976;2023-04-15T06:01:04;100900.06;;;7.52;75.99
66887;BME280;67239;51.680;5.976;2023-04-15T06:03:32;100910.34;;;7.66;75.96
66887;BME280;67239;51.680;5.976;2023-04-15T06:05:59;100913.75;;;7.71;75.82
66887;BME280;67239;51.680;5.976;2023-04-15T06:08:27;100911.06;;;7.75;76.18
66887;BME280;67239;51.680;5.976;2023-04-15T06:10:54;100917.94;;;7.83;75.82
66887;BME280;67239;51.680;5.976;2023-04-15T06:13:21;100919.41;;;7.98;76.92
66887;BME280;67239;51.680;5.976;2023-04-15T06:15:48;100923.47;;;8.14;76.14
66887;BME280;67239;51.680;5.976;2023-04-15T06:18:15;100929.34;;;8.29;76.33
66887;BME280;67239;51.680;5.976;2023-04-15T06:20:47;100931.69;;;8.43;75.31
66887;BME280;67239;51.680;5.976;2023-04-15T06:23:15;100940.41;;;8.45;75.11
66887;BME280;67239;51.680;5.976;2023-04-15T06:25:42;100940.41;;;8.45;75.17
66887;BME280;67239;51.680;5.976;2023-04-15T06:28:09;100948.22;;;8.49;74.77
66887;BME280;67239;51.680;5.976;2023-04-15T06:30:36;100957.91;;;8.49;74.83
66887;BME280;67239;51.680;5.976;2023-04-15T06:33:04;100958.66;;;8.54;74.75
66887;BME280;67239;51.680;5.976;2023-04-15T06:35:32;100965.59;;;8.57;74.66
66887;BME280;67239;51.680;5.976;2023-04-15T06:37:59;100967.28;;;8.61;74.53
66887;BME280;67239;51.680;5.976;2023-04-15T06:40:26;100968.09;;;8.64;74.71
66887;BME280;67239;51.680;5.976;2023-04-15T06:42:54;100964.50;;;8.67;74.49
66887;BME280;67239;51.680;5.976;2023-04-15T06:45:21;100975.88;;;8.69;74.18
66887;BME280;67239;51.680;5.976;2023-04-15T06:47:48;100980.28;;;8.68;74.48
66887;BME280;67239;51.680;5.976;2023-04-15T06:50:15;100982.88;;;8.70;74.62
66887;BME280;67239;51.680;5.976;2023-04-15T06:52:42;100987.31;;;8.66;74.62
66887;BME280;67239;51.680;5.976;2023-04-15T06:55:09;100999.47;;;8.70;74.25
66887;BME280;67239;51.680;5.976;2023-04-15T06:57:37;101003.94;;;8.67;74.36
66887;BME280;67239;51.680;5.976;2023-04-15T07:00:04;101010.13;;;8.64;74.64
66887;BME280;67239;51.680;5.976;2023-04-15T07:02:32;101009.25;;;8.65;74.62
66887;BME280;67239;51.680;5.976;2023-04-15T07:04:59;101011.81;;;8.68;74.49
66887;BME280;67239;51.680;5.976;2023-04-15T07:07:27;101010.91;;;8.69;74.56
66887;BME280;67239;51.680;5.976;2023-04-15T07:09:54;101013.47;;;8.73;74.62
66887;BME280;67239;51.680;5.976;2023-04-15T07:12:21;101020.50;;;8.72;74.46
66887;BME280;67239;51.680;5.976;2023-04-15T07:14:48;101022.25;;;8.73;74.73
66887;BME280;67239;51.680;5.976;2023-04-15T07:17:15;101022.16;;;8.76;74.58
66887;BME280;67239;51.680;5.976;2023-04-15T07:19:42;101033.50;;;8.80;74.69
66887;BME280;67239;51.680;5.976;2023-04-15T07:22:09;101028.16;;;8.83;74.49
66887;BME280;67239;51.680;5.976;2023-04-15T07:24:36;101035.97;;;8.88;74.63
66887;BME280;67239;51.680;5.976;2023-04-15T07:27:03;101030.59;;;8.94;74.48
66887;BME280;67239;51.680;5.976;2023-04-15T07:29:30;101046.22;;;9.00;74.20
66887;BME280;67239;51.680;5.976;2023-04-15T07:31:57;101044.41;;;9.04;74.11
66887;BME280;67239;51.680;5.976;2023-04-15T07:34:24;101047.72;;;9.12;74.01
66887;BME280;67239;51.680;5.976;2023-04-15T07:36:52;101052.00;;;9.17;73.88
66887;BME280;67239;51.680;5.976;2023-04-15T07:39:19;101057.06;;;9.28;73.51
66887;BME280;67239;51.680;5.976;2023-04-15T07:41:46;101055.06;;;9.38;73.10
66887;BME280;67239;51.680;5.976;2023-04-15T07:44:13;101054.94;;;9.44;72.32
66887;BME280;67239;51.680;5.976;2023-04-15T07:46:40;101062.66;;;9.52;72.31
66887;BME280;67239;51.680;5.976;2023-04-15T07:49:08;101062.44;;;9.61;71.75
66887;BME280;67239;51.680;5.976;2023-04-15T07:51:35;101060.47;;;9.71;70.26
66887;BME280;67239;51.680;5.976;2023-04-15T07:54:02;101061.16;;;9.79;69.38
66887;BME280;67239;51.680;5.976;2023-04-15T07:56:30;101067.03;;;9.91;69.43
66887;BME280;67239;51.680;5.976;2023-04-15T07:58:57;101060.66;;;10.01;68.83
66887;BME280;67239;51.680;5.976;2023-04-15T08:01:24;101065.63;;;10.14;68.26
66887;BME280;67239;51.680;5.976;2023-04-15T08:03:51;101074.97;;;10.27;67.91
66887;BME280;67239;51.680;5.976;2023-04-15T08:06:19;101078.13;;;10.41;68.23
66887;BME280;67239;51.680;5.976;2023-04-15T08:08:46;101081.16;;;10.59;67.14
66887;BME280;67239;51.680;5.976;2023-04-15T08:11:14;101079.94;;;10.72;66.31
66887;BME280;67239;51.680;5.976;2023-04-15T08:13:41;101092.94;;;10.79;66.26
66887;BME280;67239;51.680;5.976;2023-04-15T08:16:20;101089.22;;;10.87;65.61
66887;BME280;67239;51.680;5.976;2023-04-15T08:18:54;101086.53;;;10.89;66.21
66887;BME280;67239;51.680;5.976;2023-04-15T08:21:21;101091.78;;;10.89;65.95
66887;BME280;67239;51.680;5.976;2023-04-15T08:23:54;101094.41;;;10.91;66.20
66887;BME280;67239;51.680;5.976;2023-04-15T08:26:22;101089.03;;;10.94;66.53
66887;BME280;67239;51.680;5.976;2023-04-15T08:28:49;101092.28;;;11.03;66.77
66887;BME280;67239;51.680;5.976;2023-04-15T08:31:17;101098.78;;;11.23;65.02
66887;BME280;67239;51.680;5.976;2023-04-15T08:33:45;101096.75;;;11.31;64.12
66887;BME280;67239;51.680;5.976;2023-04-15T08:36:12;101094.81;;;11.38;63.05
66887;BME280;67239;51.680;5.976;2023-04-15T08:38:39;101104.41;;;11.41;62.69
66887;BME280;67239;51.680;5.976;2023-04-15T08:41:21;101104.88;;;11.55;61.33
66887;BME280;67239;51.680;5.976;2023-04-15T08:43:56;101107.47;;;11.57;61.36
66887;BME280;67239;51.680;5.976;2023-04-15T08:46:24;101115.22;;;11.63;60.15
66887;BME280;67239;51.680;5.976;2023-04-15T08:48:55;101107.16;;;11.68;59.13
66887;BME280;67239;51.680;5.976;2023-04-15T08:51:24;101118.66;;;11.65;59.54
66887;BME280;67239;51.680;5.976;2023-04-15T08:53:52;101119.44;;;11.69;59.43
66887;BME280;67239;51.680;5.976;2023-04-15T08:56:23;101122.84;;;11.72;60.10
66887;BME280;67239;51.680;5.976;2023-04-15T08:58:52;101125.16;;;11.83;61.15
66887;BME280;67239;51.680;5.976;2023-04-15T09:01:20;101121.97;;;12.02;60.52
66887;BME280;67239;51.680;5.976;2023-04-15T09:03:48;101136.66;;;12.10;58.56
66887;BME280;67239;51.680;5.976;2023-04-15T09:06:21;101140.22;;;12.09;57.30
66887;BME280;67239;51.680;5.976;2023-04-15T09:08:49;101138.84;;;11.96;58.23
66887;BME280;67239;51.680;5.976;2023-04-15T09:11:17;101138.91;;;11.94;58.50
66887;BME280;67239;51.680;5.976;2023-04-15T09:13:46;101148.38;;;12.02;58.77
66887;BME280;67239;51.680;5.976;2023-04-15T09:16:15;101145.59;;;12.06;59.46
66887;BME280;67239;51.680;5.976;2023-04-15T09:18:42;101150.03;;;12.06;59.75
66887;BME280;67239;51.680;5.976;2023-04-15T09:21:11;101152.44;;;12.14;59.86
66887;BME280;67239;51.680;5.976;2023-04-15T09:23:52;101160.06;;;12.23;59.65
66887;BME280;67239;51.680;5.976;2023-04-15T09:26:44;101165.22;;;12.26;59.35
66887;BME280;67239;51.680;5.976;2023-04-15T09:29:11;101166.38;;;12.46;57.74
66887;BME280;67239;51.680;5.976;2023-04-15T09:31:40;101166.41;;;12.44;57.52
66887;BME280;67239;51.680;5.976;2023-04-15T09:34:08;101164.66;;;12.45;57.41
66887;BME280;67239;51.680;5.976;2023-04-15T09:36:41;101176.03;;;12.47;57.84
66887;BME280;67239;51.680;5.976;2023-04-15T09:39:19;101169.81;;;12.48;58.33
66887;BME280;67239;51.680;5.976;2023-04-15T09:41:46;101170.34;;;12.59;58.42
66887;BME280;67239;51.680;5.976;2023-04-15T09:44:23;101171.09;;;12.63;58.54
66887;BME280;67239;51.680;5.976;2023-04-15T09:46:51;101175.13;;;12.74;58.27
66887;BME280;67239;51.680;5.976;2023-04-15T09:49:19;101182.50;;;12.92;57.82
66887;BME280;67239;51.680;5.976;2023-04-15T09:51:46;101180.63;;;12.94;57.28
66887;BME280;67239;51.680;5.976;2023-04-15T09:54:37;101185.56;;;13.04;57.61
66887;BME280;67239;51.680;5.976;2023-04-15T09:57:06;101187.00;;;13.13;57.95
66887;BME280;67239;51.680;5.976;2023-04-15T09:59:35;101196.13;;;13.30;56.56
66887;BME280;67239;51.680;5.976;2023-04-15T10:02:05;101192.91;;;13.22;56.13
66887;BME280;67239;51.680;5.976;2023-04-15T10:04:39;101190.47;;;13.15;56.56
66887;BME280;67239;51.680;5.976;2023-04-15T10:07:08;101188.69;;;13.16;55.81
66887;BME280;67239;51.680;5.976;2023-04-15T10:09:37;101189.78;;;13.10;56.80
66887;BME280;67239;51.680;5.976;2023-04-15T10:12:05;101201.31;;;13.33;55.23
66887;BME280;67239;51.680;5.976;2023-04-15T10:14:34;101203.19;;;13.29;54.63
66887;BME280;67239;51.680;5.976;2023-04-15T10:17:04;101197.16;;;13.26;55.05
66887;BME280;67239;51.680;5.976;2023-04-15T10:19:36;101203.59;;;13.18;55.63
66887;BME280;67239;51.680;5.976;2023-04-15T10:22:04;101205.44;;;13.16;56.25
66887;BME280;67239;51.680;5.976;2023-04-15T10:24:32;101207.88;;;13.23;56.80
66887;BME280;67239;51.680;5.976;2023-04-15T10:27:02;101205.69;;;13.34;57.38
66887;BME280;67239;51.680;5.976;2023-04-15T10:29:30;101216.28;;;13.59;56.42
66887;BME280;67239;51.680;5.976;2023-04-15T10:32:00;101204.66;;;13.63;56.56
66887;BME280;67239;51.680;5.976;2023-04-15T10:34:28;101207.88;;;13.72;55.84
66887;BME280;67239;51.680;5.976;2023-04-15T10:37:01;101220.56;;;13.87;55.43
66887;BME280;67239;51.680;5.976;2023-04-15T10:42:17;101224.59;;;14.20;54.64
66887;BME280;67239;51.680;5.976;2023-04-15T10:44:49;101222.22;;;14.36;54.01
66887;BME280;67239;51.680;5.976;2023-04-15T10:47:20;101223.22;;;14.33;53.16
66887;BME280;67239;51.680;5.976;2023-04-15T10:49:56;101226.88;;;14.29;52.73
66887;BME280;67239;51.680;5.976;2023-04-15T10:52:27;101225.72;;;14.14;52.49
66887;BME280;67239;51.680;5.976;2023-04-15T10:57:54;101230.00;;;13.94;52.92
66887;BME280;67239;51.680;5.976;2023-04-15T11:00:30;101230.38;;;14.07;52.04
66887;BME280;67239;51.680;5.976;2023-04-15T11:03:05;101232.84;;;14.12;52.52
66887;BME280;67239;51.680;5.976;2023-04-15T11:05:52;101242.88;;;14.27;51.99
66887;BME280;67239;51.680;5.976;2023-04-15T11:08:52;101244.78;;;14.24;53.22
66887;BME280;67239;51.680;5.976;2023-04-15T11:11:22;101238.94;;;14.38;51.73
66887;BME280;67239;51.680;5.976;2023-04-15T11:13:50;101247.00;;;14.35;52.57
66887;BME280;67239;51.680;5.976;2023-04-15T11:16:18;101238.88;;;14.39;52.68
66887;BME280;67239;51.680;5.976;2023-04-15T11:18:55;101245.53;;;14.50;51.79
66887;BME280;67239;51.680;5.976;2023-04-15T11:21:24;101244.81;;;14.68;50.30
66887;BME280;67239;51.680;5.976;2023-04-15T11:23:54;101250.34;;;14.84;49.61
66887;BME280;67239;51.680;5.976;2023-04-15T11:26:24;101245.50;;;14.73;50.14
66887;BME280;67239;51.680;5.976;2023-04-15T11:28:53;101253.38;;;14.53;50.81
66887;BME280;67239;51.680;5.976;2023-04-15T11:31:20;101255.94;;;14.32;51.48
66887;BME280;67239;51.680;5.976;2023-04-15T11:36:25;101264.53;;;14.39;51.65
66887;BME280;67239;51.680;5.976;2023-04-15T11:38:54;101257.97;;;14.48;50.75
66887;BME280;67239;51.680;5.976;2023-04-15T11:41:23;101263.94;;;14.31;52.32
66887;BME280;67239;51.680;5.976;2023-04-15T11:43:50;101258.72;;;14.29;52.85
66887;BME280;67239;51.680;5.976;2023-04-15T11:46:18;101266.13;;;14.43;52.65
66887;BME280;67239;51.680;5.976;2023-04-15T11:48:47;101268.00;;;14.63;52.29
66887;BME280;67239;51.680;5.976;2023-04-15T11:51:14;101275.69;;;14.91;51.11
66887;BME280;67239;51.680;5.976;2023-04-15T11:53:48;101266.28;;;15.05;50.59
66887;BME280;67239;51.680;5.976;2023-04-15T11:56:18;101262.84;;;15.03;50.04
66887;BME280;67239;51.680;5.976;2023-04-15T11:58:55;101262.03;;;15.01;50.32
66887;BME280;67239;51.680;5.976;2023-04-15T12:01:35;101270.25;;;14.95;51.41
66887;BME280;67239;51.680;5.976;2023-04-15T12:04:13;101271.19;;;14.94;49.74
66887;BME280;67239;51.680;5.976;2023-04-15T12:06:48;101271.16;;;14.95;48.43
66887;BME280;67239;51.680;5.976;2023-04-15T12:09:16;101282.91;;;14.88;49.63
66887;BME280;67239;51.680;5.976;2023-04-15T12:11:50;101273.22;;;15.09;48.27
66887;BME280;67239;51.680;5.976;2023-04-15T12:14:31;101281.63;;;15.19;47.99
66887;BME280;67239;51.680;5.976;2023-04-15T12:17:01;101279.66;;;15.03;49.47
66887;BME280;67239;51.680;5.976;2023-04-15T12:19:35;101284.06;;;15.03;50.10
66887;BME280;67239;51.680;5.976;2023-04-15T12:22:15;101280.44;;;15.05;49.29
66887;BME280;67239;51.680;5.976;2023-04-15T12:24:43;101285.25;;;14.96;48.69
66887;BME280;67239;51.680;5.976;2023-04-15T12:27:15;101291.81;;;14.87;49.44
66887;BME280;67239;51.680;5.976;2023-04-15T12:29:43;101292.31;;;14.97;49.87
66887;BME280;67239;51.680;5.976;2023-04-15T12:32:17;101296.50;;;15.02;50.16
66887;BME280;67239;51.680;5.976;2023-04-15T12:34:50;101292.41;;;15.16;48.31
66887;BME280;67239;51.680;5.976;2023-04-15T12:37:19;101294.88;;;15.20;48.51
66887;BME280;67239;51.680;5.976;2023-04-15T12:39:48;101297.75;;;15.14;48.23
66887;BME280;67239;51.680;5.976;2023-04-15T12:42:16;101301.75;;;15.25;47.13
66887;BME280;67239;51.680;5.976;2023-04-15T12:44:44;101303.47;;;15.05;47.81
66887;BME280;67239;51.680;5.976;2023-04-15T12:47:11;101302.41;;;15.09;48.46
66887;BME280;67239;51.680;5.976;2023-04-15T12:49:39;101307.59;;;15.33;47.34
66887;BME280;67239;51.680;5.976;2023-04-15T12:52:06;101319.31;;;15.29;47.89
66887;BME280;67239;51.680;5.976;2023-04-15T12:54:34;101317.88;;;15.20;47.75
66887;BME280;67239;51.680;5.976;2023-04-15T12:57:02;101328.81;;;15.12;47.94
66887;BME280;67239;51.680;5.976;2023-04-15T12:59:34;101332.63;;;15.27;47.26
66887;BME280;67239;51.680;5.976;2023-04-15T13:02:02;101320.03;;;15.53;46.62
66887;BME280;67239;51.680;5.976;2023-04-15T13:04:30;101327.69;;;15.61;46.47
66887;BME280;67239;51.680;5.976;2023-04-15T13:06:57;101328.00;;;15.53;46.12
66887;BME280;67239;51.680;5.976;2023-04-15T13:09:24;101330.91;;;15.47;47.38
66887;BME280;67239;51.680;5.976;2023-04-15T13:11:52;101334.66;;;15.43;46.60